Time;durP1;ratioP1;P1;durP2;ratioP2;P2;SDS_P1;SDS_P2;PMS_P1;PMS_P2;Temp;Humidity;BMP_temperature;BMP_pressure;BME280_temperature;BME280_humidity;BME280_pressure;Samples;Min_cycle;Max_cycle;Signal;HPM_P1;HPM_P2
2022/05/01 00:01:40;;;;;;;16.35;11.10;;;6.20;99.90;;;;;;5041191;28;20024;-81
2022/05/01 00:04:05;;;;;;;15.43;10.30;;;6.20;99.90;;;;;;5040683;28;20053;-84
2022/05/01 00:06:33;;;;;;;16.92;10.75;;;6.10;99.90;;;;;;5041340;28;20046;-85
2022/05/01 00:09:00;;;;;;;15.27;10.43;;;6.10;99.90;;;;;;5059155;28;20017;-84
2022/05/01 00:11:27;;;;;;;16.95;10.65;;;6.00;99.90;;;;;;5079569;28;20021;-84
2022/05/01 00:13:53;;;;;;;14.38;10.20;;;6.00;99.90;;;;;;5078938;28;20035;-85
2022/05/01 00:16:18;;;;;;;15.70;10.27;;;5.90;99.90;;;;;;5061534;28;20029;-84
2022/05/01 00:18:44;;;;;;;17.65;10.50;;;5.90;99.90;;;;;;5061432;28;20365;-85
2022/05/01 00:21:11;;;;;;;16.83;11.07;;;5.90;99.90;;;;;;5060984;28;20052;-85
2022/05/01 00:23:38;;;;;;;17.88;11.98;;;5.90;99.90;;;;;;5080252;28;20031;-85
2022/05/01 00:26:05;;;;;;;14.70;10.32;;;5.80;99.90;;;;;;5062248;28;20112;-83
2022/05/01 00:28:34;;;;;;;16.13;10.50;;;5.70;99.90;;;;;;5062631;28;20028;-86
2022/05/01 00:31:01;;;;;;;13.95;10.23;;;5.70;99.90;;;;;;5080466;28;20028;-84
2022/05/01 00:36:26;;;;;;;17.95;11.65;;;5.60;99.90;;;;;;5078537;28;20071;-84
2022/05/01 00:39:03;;;;;;;18.02;11.82;;;5.60;99.90;;;;;;5077425;28;20024;-85
2022/05/01 00:41:33;;;;;;;16.25;10.60;;;5.60;99.90;;;;;;5077968;28;20020;-84
2022/05/01 00:44:13;;;;;;;16.13;11.30;;;5.60;99.90;;;;;;5059662;28;20017;-85
2022/05/01 00:46:40;;;;;;;19.42;11.77;;;5.50;99.90;;;;;;5079417;28;20055;-82
2022/05/01 00:49:12;;;;;;;18.13;12.15;;;5.50;99.90;;;;;;5079308;28;20039;-84
2022/05/01 00:51:43;;;;;;;19.23;12.35;;;5.50;99.90;;;;;;5060414;28;20028;-84
2022/05/01 00:54:10;;;;;;;21.33;12.95;;;5.50;99.90;;;;;;5078709;28;20120;-84
2022/05/01 00:56:39;;;;;;;18.73;11.52;;;5.40;99.90;;;;;;5059609;28;20507;-84
2022/05/01 00:59:06;;;;;;;18.67;11.77;;;5.40;99.90;;;;;;5059705;28;20046;-85
2022/05/01 01:01:33;;;;;;;18.45;12.63;;;5.30;99.90;;;;;;5060253;28;20427;-83
2022/05/01 01:03:59;;;;;;;15.40;11.18;;;5.20;99.90;;;;;;5060513;28;20383;-84
2022/05/01 01:06:24;;;;;;;17.00;11.65;;;5.20;99.90;;;;;;5060399;28;20081;-84
2022/05/01 01:08:50;;;;;;;16.77;11.07;;;5.10;99.90;;;;;;5060918;28;20028;-84
2022/05/01 01:11:16;;;;;;;21.42;13.10;;;5.10;99.90;;;;;;5059434;28;20562;-84
2022/05/01 01:13:43;;;;;;;18.42;11.75;;;5.10;99.90;;;;;;5059374;28;20028;-84
2022/05/01 01:16:09;;;;;;;20.52;13.07;;;5.10;99.90;;;;;;5046810;28;20021;-83
2022/05/01 01:18:35;;;;;;;17.38;11.70;;;5.00;99.90;;;;;;5056110;28;20028;-83
2022/05/01 01:21:01;;;;;;;20.30;12.77;;;5.00;99.90;;;;;;5041596;28;20060;-84
2022/05/01 01:23:29;;;;;;;20.08;11.77;;;5.10;99.90;;;;;;5057606;28;20453;-81
2022/05/01 01:25:54;;;;;;;17.23;11.05;;;5.10;99.90;;;;;;5039934;28;20021;-83
2022/05/01 01:28:21;;;;;;;22.23;11.50;;;5.10;99.90;;;;;;5039073;28;20025;-84
2022/05/01 01:33:36;;;;;;;17.98;11.60;;;5.10;99.90;;;;;;5058190;28;20074;-85
2022/05/01 01:36:03;;;;;;;18.63;11.88;;;5.10;99.90;;;;;;5057624;28;20112;-82
2022/05/01 01:38:30;;;;;;;16.45;11.50;;;5.10;99.90;;;;;;5056747;28;20100;-83
2022/05/01 01:40:58;;;;;;;21.73;12.30;;;5.10;99.90;;;;;;5039609;28;20088;-84
2022/05/01 01:43:28;;;;;;;17.13;11.80;;;5.20;99.90;;;;;;5057151;28;20085;-84
2022/05/01 01:45:54;;;;;;;19.98;12.23;;;5.10;99.90;;;;;;5057862;28;20028;-84
2022/05/01 01:48:22;;;;;;;19.75;12.93;;;5.10;99.90;;;;;;5040461;28;20024;-84
2022/05/01 01:51:06;;;;;;;19.10;12.48;;;5.10;99.90;;;;;;5039032;28;20033;-84
2022/05/01 01:53:35;;;;;;;18.92;12.27;;;5.00;99.90;;;;;;5057075;28;20128;-84
2022/05/01 01:56:02;;;;;;;19.58;13.23;;;5.10;99.90;;;;;;5057232;28;20025;-84
2022/05/01 01:58:28;;;;;;;20.02;11.82;;;5.00;99.90;;;;;;5057618;28;20108;-85
2022/05/01 02:00:54;;;;;;;20.48;12.98;;;5.00;99.90;;;;;;5041335;28;20460;-83
2022/05/01 02:03:20;;;;;;;21.83;12.90;;;5.00;99.90;;;;;;5059511;28;20029;-84
2022/05/01 02:05:49;;;;;;;18.52;11.50;;;5.00;99.90;;;;;;5041739;28;20061;-84
2022/05/01 02:08:16;;;;;;;20.33;12.77;;;5.00;99.90;;;;;;5072964;28;20028;-84
2022/05/01 02:10:41;;;;;;;19.40;13.27;;;5.00;99.90;;;;;;5085059;28;20032;-84
2022/05/01 02:13:08;;;;;;;19.85;12.98;;;5.00;99.90;;;;;;5082713;28;20037;-84
2022/05/01 02:15:35;;;;;;;23.65;13.63;;;5.10;99.90;;;;;;5076782;28;20040;-85
2022/05/01 02:18:02;;;;;;;19.42;12.73;;;5.10;99.90;;;;;;5059461;28;20056;-83
2022/05/01 02:21:33;;;;;;;20.20;13.27;;;5.20;99.90;;;;;;5058728;28;20431;-82
2022/05/01 02:23:15;;;;;;;19.42;12.52;;;5.20;99.90;;;;;;5075095;28;20149;-84
2022/05/01 02:25:41;;;;;;;21.10;12.60;;;5.20;99.90;;;;;;5058327;28;20024;-82
2022/05/01 02:28:06;;;;;;;19.35;12.85;;;5.30;99.90;;;;;;5057915;28;20498;-83
2022/05/01 02:30:32;;;;;;;20.08;12.80;;;5.30;99.90;;;;;;5076776;28;20032;-83
2022/05/01 02:32:58;;;;;;;18.10;13.00;;;5.30;99.90;;;;;;5057791;28;20039;-83
2022/05/01 02:35:23;;;;;;;19.92;12.52;;;5.30;99.90;;;;;;5058652;28;20033;-83
2022/05/01 02:37:49;;;;;;;21.33;13.05;;;5.40;99.90;;;;;;5058739;28;20072;-82
2022/05/01 02:40:15;;;;;;;18.80;12.40;;;5.40;99.90;;;;;;5076046;28;20077;-83
2022/05/01 02:42:42;;;;;;;19.60;13.10;;;5.40;99.90;;;;;;5075851;28;20231;-82
2022/05/01 02:45:08;;;;;;;17.75;13.10;;;5.40;99.90;;;;;;5076523;28;20024;-84
2022/05/01 02:47:34;;;;;;;19.05;12.55;;;5.50;99.90;;;;;;5076839;28;20064;-84
2022/05/01 02:50:00;;;;;;;19.30;11.70;;;5.50;99.90;;;;;;5076087;28;20028;-83
2022/05/01 02:52:26;;;;;;;19.17;12.25;;;5.50;99.90;;;;;;5058165;28;20028;-83
2022/05/01 02:54:52;;;;;;;17.58;12.43;;;5.50;99.90;;;;;;5057816;28;20035;-84
2022/05/01 02:57:17;;;;;;;18.90;12.23;;;5.60;99.90;;;;;;5075618;28;20035;-83
2022/05/01 02:59:44;;;;;;;17.95;13.20;;;5.60;99.90;;;;;;5076575;28;20099;-84
2022/05/01 03:02:10;;;;;;;20.48;13.32;;;5.60;99.90;;;;;;5058636;28;20074;-84
2022/05/01 03:04:35;;;;;;;18.48;12.55;;;5.60;99.90;;;;;;5077954;28;20012;-84
2022/05/01 03:07:04;;;;;;;16.75;12.05;;;5.60;99.90;;;;;;5062326;28;20028;-86
2022/05/01 03:09:30;;;;;;;19.25;11.73;;;5.60;99.90;;;;;;5075981;28;20017;-87
2022/05/01 03:11:56;;;;;;;18.15;12.82;;;5.70;99.90;;;;;;5060600;28;20028;-85
2022/05/01 03:14:21;;;;;;;17.63;12.10;;;5.60;99.90;;;;;;5043577;28;20075;-85
2022/05/01 03:16:47;;;;;;;17.33;11.20;;;5.60;99.90;;;;;;5059868;28;20036;-85
2022/05/01 03:22:13;;;;;;;16.50;11.10;;;5.60;99.90;;;;;;5059292;28;20112;-83
2022/05/01 03:24:42;;;;;;;16.88;11.68;;;5.60;99.90;;;;;;5059783;28;20017;-84
2022/05/01 03:27:10;;;;;;;18.55;10.70;;;5.60;99.90;;;;;;5060984;28;20044;-86
2022/05/01 03:29:37;;;;;;;16.98;11.57;;;5.60;99.90;;;;;;5044074;28;20032;-82
2022/05/01 03:32:09;;;;;;;16.77;10.82;;;5.60;99.90;;;;;;5052976;28;20029;-86
2022/05/01 03:34:40;;;;;;;17.83;11.48;;;5.60;99.90;;;;;;5064136;28;20032;-85
2022/05/01 03:37:06;;;;;;;17.85;11.25;;;5.50;99.90;;;;;;5039832;28;20060;-85
2022/05/01 03:39:34;;;;;;;16.05;11.00;;;5.50;99.90;;;;;;5057421;28;20505;-87
2022/05/01 03:42:00;;;;;;;18.98;11.38;;;5.50;99.90;;;;;;5040171;28;20032;-85
2022/05/01 03:44:26;;;;;;;16.45;11.52;;;5.40;99.90;;;;;;5058033;28;20013;-86
2022/05/01 03:46:51;;;;;;;17.88;11.05;;;5.40;99.90;;;;;;5057372;28;20478;-85
2022/05/01 03:49:17;;;;;;;17.80;12.20;;;5.30;99.90;;;;;;5057180;28;20137;-84
2022/05/01 03:51:43;;;;;;;15.55;11.02;;;5.30;99.90;;;;;;5040078;28;20126;-84
2022/05/01 03:54:09;;;;;;;15.60;11.93;;;5.20;99.90;;;;;;5057873;28;20104;-85
2022/05/01 03:56:35;;;;;;;20.55;11.75;;;5.20;99.90;;;;;;5040212;28;20039;-86
2022/05/01 03:59:04;;;;;;;19.92;12.57;;;5.20;99.90;;;;;;5040676;28;20108;-86
2022/05/01 04:01:30;;;;;;;20.90;13.25;;;5.20;99.90;;;;;;5039700;28;20108;-83
2022/05/01 04:03:56;;;;;;;19.17;11.77;;;5.20;99.90;;;;;;5039290;28;20036;-87
2022/05/01 04:06:22;;;;;;;20.48;13.05;;;5.10;99.90;;;;;;5057218;28;20021;-83
2022/05/01 04:08:48;;;;;;;17.77;11.30;;;5.10;99.90;;;;;;5039958;28;20527;-83
2022/05/01 04:11:14;;;;;;;19.23;11.95;;;5.00;99.90;;;;;;5039935;28;20033;-85
2022/05/01 04:13:40;;;;;;;19.77;11.88;;;5.00;99.90;;;;;;5042085;28;20033;-85
2022/05/01 04:16:06;;;;;;;17.95;12.00;;;4.90;99.90;;;;;;5061330;28;20025;-82
2022/05/01 04:18:31;;;;;;;17.52;11.23;;;4.90;99.90;;;;;;5041750;28;20416;-85
2022/05/01 04:20:58;;;;;;;16.48;11.57;;;4.80;99.90;;;;;;5041879;28;20021;-85
2022/05/01 04:23:24;;;;;;;18.27;12.15;;;4.80;99.90;;;;;;5040820;28;20496;-84
2022/05/01 04:25:50;;;;;;;19.00;11.93;;;4.80;99.90;;;;;;5059735;28;20029;-85
2022/05/01 04:28:16;;;;;;;20.45;13.25;;;4.70;99.90;;;;;;5059338;28;20021;-85
2022/05/01 04:30:42;;;;;;;18.92;11.93;;;4.70;99.90;;;;;;5059057;28;20032;-85
2022/05/01 04:33:09;;;;;;;17.63;11.57;;;4.70;99.90;;;;;;5059115;28;20079;-85
2022/05/01 04:35:38;;;;;;;15.25;10.68;;;4.70;99.90;;;;;;5058790;28;20075;-86
2022/05/01 04:38:19;;;;;;;17.05;11.85;;;4.60;99.90;;;;;;5039546;28;20025;-84
2022/05/01 04:40:48;;;;;;;17.90;11.75;;;4.60;99.90;;;;;;5060754;28;20076;-84
2022/05/01 04:43:17;;;;;;;20.60;12.55;;;4.60;99.90;;;;;;5043294;28;20067;-84
2022/05/01 04:45:43;;;;;;;21.15;13.20;;;4.60;99.90;;;;;;5043079;28;20029;-84
2022/05/01 04:48:10;;;;;;;72.80;42.15;;;4.60;99.90;;;;;;5042599;28;20036;-84
2022/05/01 04:50:36;;;;;;;36.97;22.58;;;4.70;99.90;;;;;;5042161;28;20021;-86
2022/05/01 04:53:06;;;;;;;27.65;16.17;;;4.90;99.90;;;;;;5042193;28;20021;-86
2022/05/01 04:55:32;;;;;;;20.95;13.85;;;4.90;99.90;;;;;;5060195;28;20020;-86
2022/05/01 04:57:58;;;;;;;26.23;15.18;;;4.90;99.90;;;;;;5042587;28;20056;-83
2022/05/01 05:00:25;;;;;;;21.23;13.88;;;4.90;99.90;;;;;;5042959;28;20025;-86
2022/05/01 05:02:53;;;;;;;21.02;12.48;;;5.00;99.90;;;;;;5043033;28;20017;-85
2022/05/01 05:05:21;;;;;;;21.65;12.77;;;5.00;99.90;;;;;;5041181;28;20029;-85
2022/05/01 05:07:47;;;;;;;20.73;12.30;;;5.00;99.90;;;;;;5041431;28;20025;-84
2022/05/01 05:10:14;;;;;;;22.10;12.90;;;5.10;99.90;;;;;;5059402;28;20083;-86
2022/05/01 05:12:45;;;;;;;19.27;12.60;;;5.10;99.90;;;;;;5060258;28;20025;-85
2022/05/01 05:15:15;;;;;;;17.38;11.93;;;5.20;99.90;;;;;;5041538;28;20025;-84
2022/05/01 05:17:42;;;;;;;18.30;12.65;;;5.30;99.90;;;;;;5041861;28;20021;-87
2022/05/01 05:20:11;;;;;;;18.55;11.93;;;5.40;99.90;;;;;;5041802;28;20025;-84
2022/05/01 05:22:37;;;;;;;21.38;13.57;;;5.60;99.90;;;;;;5060016;28;20025;-84
2022/05/01 05:25:07;;;;;;;16.73;12.77;;;5.80;99.90;;;;;;5059277;28;20044;-85
2022/05/01 05:27:33;;;;;;;18.98;13.00;;;6.10;99.90;;;;;;5060863;28;20408;-84
2022/05/01 05:29:58;;;;;;;19.38;13.13;;;6.30;99.90;;;;;;5043187;28;20123;-82
2022/05/01 05:32:25;;;;;;;18.52;12.55;;;6.50;99.90;;;;;;5060383;28;20021;-84
2022/05/01 05:34:51;;;;;;;18.33;12.75;;;6.70;99.90;;;;;;5043152;28;20032;-84
2022/05/01 05:37:18;;;;;;;18.90;11.48;;;7.00;99.90;;;;;;5043720;28;20021;-85
2022/05/01 05:39:44;;;;;;;17.85;12.43;;;7.10;99.90;;;;;;5044654;28;20025;-85
2022/05/01 05:42:11;;;;;;;21.10;12.70;;;7.20;99.90;;;;;;5046217;28;20033;-85
2022/05/01 05:44:38;;;;;;;18.45;12.65;;;7.30;99.90;;;;;;5050630;28;20015;-85
2022/05/01 05:47:04;;;;;;;16.98;12.13;;;7.40;99.90;;;;;;5054995;28;20017;-86
2022/05/01 05:49:31;;;;;;;20.10;12.68;;;7.60;99.90;;;;;;5044965;28;20029;-86
2022/05/01 05:51:57;;;;;;;19.38;13.98;;;7.70;99.90;;;;;;5045666;28;20021;-84
2022/05/01 05:54:23;;;;;;;19.10;11.85;;;7.70;99.90;;;;;;5046469;28;20052;-85
2022/05/01 05:56:48;;;;;;;15.90;11.80;;;7.70;99.90;;;;;;5046307;28;20032;-83
2022/05/01 05:59:15;;;;;;;17.85;12.43;;;7.80;99.90;;;;;;5062208;28;20064;-85
2022/05/01 06:01:41;;;;;;;17.73;12.68;;;7.90;99.90;;;;;;5041827;28;20043;-83
2022/05/01 06:04:06;;;;;;;17.98;11.57;;;8.00;99.90;;;;;;5041669;28;20127;-85
2022/05/01 06:06:33;;;;;;;15.77;11.63;;;8.10;99.90;;;;;;5042423;28;20063;-84
2022/05/01 06:08:59;;;;;;;17.55;11.27;;;8.20;99.90;;;;;;5060493;28;20021;-85
2022/05/01 06:11:26;;;;;;;17.45;12.05;;;8.30;99.90;;;;;;5063021;28;20039;-86
2022/05/01 06:13:52;;;;;;;16.48;11.45;;;8.40;99.90;;;;;;5079735;28;20089;-83
2022/05/01 06:16:19;;;;;;;18.00;10.80;;;8.50;99.90;;;;;;5062598;28;20053;-84
2022/05/01 06:18:44;;;;;;;14.25;10.50;;;8.60;99.90;;;;;;5061464;28;20480;-87
2022/05/01 06:21:10;;;;;;;15.55;10.65;;;8.80;99.90;;;;;;5062790;28;20115;-88
2022/05/01 06:23:35;;;;;;;11.77;9.27;;;8.90;99.90;;;;;;5063094;28;20017;-85
2022/05/01 06:26:04;;;;;;;14.95;9.98;;;9.10;99.90;;;;;;5063387;28;20046;-86
2022/05/01 06:28:30;;;;;;;12.43;9.32;;;9.20;99.90;;;;;;5081456;28;20025;-83
2022/05/01 06:30:57;;;;;;;15.18;9.90;;;9.60;99.90;;;;;;5064056;28;20055;-84
2022/05/01 06:33:23;;;;;;;13.00;9.48;;;9.90;99.90;;;;;;5064587;28;20032;-84
2022/05/01 06:35:51;;;;;;;12.90;9.35;;;10.40;99.90;;;;;;5064463;28;20120;-86
2022/05/01 06:38:17;;;;;;;14.45;8.88;;;10.90;99.90;;;;;;5064865;28;20050;-85
2022/05/01 06:40:44;;;;;;;11.48;8.82;;;11.30;99.90;;;;;;5064746;28;20544;-84
2022/05/01 06:43:11;;;;;;;14.38;8.80;;;11.30;99.90;;;;;;5083390;28;20024;-86
2022/05/01 06:45:37;;;;;;;12.05;7.60;;;11.40;99.90;;;;;;5065253;28;20123;-86
2022/05/01 06:48:03;;;;;;;11.75;8.07;;;11.60;99.90;;;;;;5065342;28;20024;-85
2022/05/01 06:50:30;;;;;;;11.38;7.93;;;11.40;99.90;;;;;;5066097;28;20024;-87
2022/05/01 06:52:55;;;;;;;12.27;7.95;;;11.40;99.90;;;;;;5065377;28;20052;-87
2022/05/01 06:55:23;;;;;;;11.68;7.63;;;11.40;99.90;;;;;;5085216;28;20021;-85
2022/05/01 06:57:49;;;;;;;9.95;6.75;;;11.40;99.90;;;;;;5084485;28;20017;-85
2022/05/01 07:00:16;;;;;;;10.43;7.57;;;11.50;99.90;;;;;;5066124;28;20059;-85
2022/05/01 07:02:46;;;;;;;9.25;6.93;;;11.60;99.90;;;;;;5084647;28;20020;-85
2022/05/01 07:05:12;;;;;;;11.52;7.78;;;11.60;99.90;;;;;;5068614;28;20040;-84
2022/05/01 07:07:37;;;;;;;11.70;7.20;;;11.70;99.90;;;;;;5089006;28;20020;-83
2022/05/01 07:10:03;;;;;;;11.38;7.65;;;11.90;99.90;;;;;;5062421;28;20021;-84
2022/05/01 07:12:29;;;;;;;9.43;6.82;;;12.00;99.90;;;;;;5055015;28;20147;-83
2022/05/01 07:14:55;;;;;;;9.02;7.07;;;12.20;99.90;;;;;;5072368;28;20020;-83
2022/05/01 07:17:20;;;;;;;10.57;6.47;;;12.60;99.90;;;;;;5069523;28;20235;-81
2022/05/01 07:19:46;;;;;;;8.85;6.80;;;12.70;99.90;;;;;;5051081;28;20025;-87
2022/05/01 07:22:16;;;;;;;12.32;7.45;;;12.80;99.90;;;;;;5061136;28;20385;-86
2022/05/01 07:24:42;;;;;;;12.48;6.95;;;12.80;99.90;;;;;;5041829;28;20021;-82
2022/05/01 07:27:08;;;;;;;8.75;6.50;;;12.80;99.90;;;;;;5043891;28;20016;-84
2022/05/01 07:29:35;;;;;;;10.25;7.78;;;13.00;99.90;;;;;;5044897;28;20021;-83
2022/05/01 07:32:00;;;;;;;12.80;8.23;;;13.20;99.90;;;;;;5045843;28;20040;-83
2022/05/01 07:34:26;;;;;;;13.48;7.47;;;13.40;99.90;;;;;;5045636;28;20029;-85
2022/05/01 07:36:51;;;;;;;7.18;5.90;;;13.60;99.90;;;;;;5045393;28;20089;-84
2022/05/01 07:39:17;;;;;;;11.07;7.13;;;13.80;99.90;;;;;;5045659;28;20120;-86
2022/05/01 07:41:43;;;;;;;9.23;6.72;;;13.90;99.90;;;;;;5045883;28;20537;-83
2022/05/01 07:44:11;;;;;;;13.38;8.32;;;13.80;99.90;;;;;;5063930;28;20373;-87
2022/05/01 07:46:38;;;;;;;16.08;10.63;;;13.70;99.90;;;;;;5063662;28;20024;-83
2022/05/01 07:49:05;;;;;;;16.83;10.80;;;14.00;99.90;;;;;;5048966;28;20029;-83
2022/05/01 07:51:31;;;;;;;16.77;11.05;;;14.20;99.90;;;;;;5049458;28;20029;-84
2022/05/01 07:53:58;;;;;;;15.05;9.48;;;14.20;99.90;;;;;;5049724;28;20021;-86
2022/05/01 07:56:27;;;;;;;12.02;8.35;;;14.20;99.90;;;;;;5049555;28;20057;-82
2022/05/01 07:58:54;;;;;;;14.52;10.75;;;14.40;99.90;;;;;;5073296;28;20041;-83
2022/05/01 08:01:21;;;;;;;12.68;8.35;;;14.30;99.90;;;;;;5061561;28;20044;-84
2022/05/01 08:06:32;;;;;;;18.58;11.38;;;14.60;99.90;;;;;;5066972;28;20103;-86
2022/05/01 08:08:58;;;;;;;12.80;9.15;;;14.80;99.90;;;;;;5048636;28;20020;-84
2022/05/01 08:11:24;;;;;;;14.82;9.43;;;15.10;99.90;;;;;;5069987;28;20112;-85
2022/05/01 08:13:50;;;;;;;11.40;8.98;;;15.40;97.70;;;;;;5069536;28;20028;-85
2022/05/01 08:16:17;;;;;;;12.93;8.23;;;15.50;94.60;;;;;;5069769;28;20120;-87
2022/05/01 08:21:31;;;;;;;10.45;6.65;;;15.60;95.80;;;;;;5089148;28;20039;-86
2022/05/01 08:23:57;;;;;;;9.15;6.28;;;15.80;97.00;;;;;;5089475;28;20050;-84
2022/05/01 08:26:24;;;;;;;7.38;5.75;;;16.10;94.70;;;;;;5090201;28;20101;-85
2022/05/01 08:28:55;;;;;;;11.10;6.85;;;16.50;93.30;;;;;;5073024;28;20033;-84
2022/05/01 08:31:21;;;;;;;9.38;6.50;;;16.70;90.80;;;;;;5074293;28;20028;-86
2022/05/01 08:33:47;;;;;;;9.45;6.38;;;16.90;89.40;;;;;;5073322;28;20029;-86
2022/05/01 08:36:12;;;;;;;10.55;6.75;;;17.10;89.20;;;;;;5084747;28;20037;-84
2022/05/01 08:38:39;;;;;;;8.85;6.25;;;17.40;87.70;;;;;;5084996;28;20088;-85
2022/05/01 08:41:07;;;;;;;8.75;6.65;;;17.30;84.70;;;;;;5067376;28;20046;-85
2022/05/01 08:43:34;;;;;;;7.82;6.25;;;17.90;83.90;;;;;;5067871;28;20031;-84
2022/05/01 08:47:04;;;;;;;12.48;6.97;;;18.10;75.80;;;;;;5084865;28;20025;-83
2022/05/01 08:49:33;;;;;;;7.93;6.05;;;17.70;77.50;;;;;;5032589;28;20038;-85
2022/05/01 08:52:01;;;;;;;11.45;6.55;;;17.60;78.50;;;;;;5042371;28;20056;-86
2022/05/01 08:54:30;;;;;;;8.02;5.47;;;17.30;78.20;;;;;;5062691;28;20040;-83
2022/05/01 08:56:57;;;;;;;7.28;5.78;;;17.30;80.80;;;;;;5083699;28;20025;-82
2022/05/01 08:59:25;;;;;;;10.57;7.38;;;17.50;78.00;;;;;;5082781;28;20016;-85
2022/05/01 09:01:52;;;;;;;10.02;7.57;;;17.70;73.40;;;;;;5064777;28;20452;-87
2022/05/01 09:04:18;;;;;;;12.60;6.53;;;17.90;72.60;;;;;;5082466;28;20393;-84
2022/05/01 09:06:44;;;;;;;12.30;7.15;;;17.70;74.80;;;;;;5064375;28;20064;-84
2022/05/01 09:09:21;;;;;;;7.95;6.22;;;18.00;73.50;;;;;;5080574;28;20040;-83
2022/05/01 09:14:37;;;;;;;9.07;6.40;;;17.50;72.50;;;;;;5064805;28;20028;-84
2022/05/01 09:17:17;;;;;;;10.35;7.05;;;17.20;73.00;;;;;;5047917;28;20441;-83
2022/05/01 09:19:49;;;;;;;6.30;4.97;;;17.10;71.70;;;;;;5047750;28;20059;-84
2022/05/01 09:22:16;;;;;;;8.82;5.00;;;17.10;71.20;;;;;;5065524;28;20078;-82
2022/05/01 09:24:42;;;;;;;13.20;6.03;;;17.00;72.00;;;;;;5066307;28;20017;-84
2022/05/01 09:27:25;;;;;;;6.68;5.35;;;16.80;72.00;;;;;;5047702;28;20028;-84
2022/05/01 09:30:16;;;;;;;7.45;5.65;;;16.80;71.60;;;;;;5049210;28;20021;-84
2022/05/01 09:32:42;;;;;;;10.15;6.00;;;16.80;74.40;;;;;;5048798;28;20029;-83
2022/05/01 09:35:16;;;;;;;9.43;5.95;;;16.80;76.50;;;;;;5047782;28;20478;-85
2022/05/01 09:37:42;;;;;;;5.07;4.13;;;16.80;75.20;;;;;;5066099;28;20063;-82
2022/05/01 09:40:09;;;;;;;5.72;4.20;;;16.70;72.00;;;;;;5048537;28;20088;-85
2022/05/01 09:42:36;;;;;;;12.15;4.30;;;16.60;69.20;;;;;;5067683;28;20024;-83
2022/05/01 09:45:06;;;;;;;6.75;4.43;;;16.50;69.40;;;;;;5050345;28;20106;-84
2022/05/01 09:47:36;;;;;;;5.85;4.50;;;16.50;71.90;;;;;;5070187;28;20037;-82
2022/05/01 09:50:04;;;;;;;9.45;5.40;;;16.40;71.30;;;;;;5052922;28;20029;-83
2022/05/01 09:52:55;;;;;;;5.22;4.57;;;16.20;72.20;;;;;;5067754;28;20084;-84
2022/05/01 09:55:22;;;;;;;8.52;5.00;;;16.00;71.90;;;;;;5046541;28;20021;-83
2022/05/01 09:57:48;;;;;;;7.30;4.53;;;15.80;74.20;;;;;;5046377;28;20025;-82
2022/05/01 10:00:14;;;;;;;11.88;5.70;;;15.80;73.80;;;;;;5065524;28;20075;-83
2022/05/01 10:02:39;;;;;;;7.30;3.67;;;15.80;72.30;;;;;;5047816;28;20460;-82
2022/05/01 10:05:08;;;;;;;6.95;4.50;;;15.70;73.20;;;;;;5048073;28;20033;-84
2022/05/01 10:07:37;;;;;;;5.75;4.00;;;15.70;74.10;;;;;;5051074;28;20021;-83
2022/05/01 10:10:07;;;;;;;7.47;4.07;;;15.50;72.30;;;;;;5060109;28;20058;-85
2022/05/01 10:12:40;;;;;;;5.32;4.07;;;15.40;72.90;;;;;;5090477;28;20020;-84
2022/05/01 10:15:06;;;;;;;10.20;4.07;;;15.40;73.10;;;;;;5095324;28;20343;-82
2022/05/01 10:17:35;;;;;;;4.65;3.40;;;15.40;72.80;;;;;;5074719;28;20127;-83
2022/05/01 10:20:03;;;;;;;6.65;4.20;;;15.30;72.90;;;;;;5082994;28;20028;-84
2022/05/01 10:22:34;;;;;;;8.20;4.30;;;15.40;73.60;;;;;;5082742;28;20388;-84
2022/05/01 10:25:02;;;;;;;7.95;4.32;;;15.50;75.00;;;;;;5082982;28;20024;-83
2022/05/01 10:27:46;;;;;;;6.05;4.40;;;15.70;70.50;;;;;;5064304;28;20089;-82
2022/05/01 10:33:07;;;;;;;7.88;4.45;;;16.10;69.00;;;;;;5083045;28;20088;-83
2022/05/01 10:36:03;;;;;;;7.10;3.80;;;16.40;67.80;;;;;;5083102;28;20403;-85
2022/05/01 10:38:40;;;;;;;6.07;4.05;;;16.70;68.40;;;;;;5067523;28;20071;-84
2022/05/01 10:41:07;;;;;;;6.65;4.45;;;16.80;67.10;;;;;;5085468;28;20078;-86
2022/05/01 10:43:38;;;;;;;6.40;4.07;;;17.10;66.40;;;;;;5067179;28;20017;-86
2022/05/01 10:46:19;;;;;;;7.53;4.38;;;17.30;66.60;;;;;;5066816;28;20021;-85
2022/05/01 10:48:44;;;;;;;6.47;4.18;;;17.60;64.60;;;;;;5067297;28;20025;-86
2022/05/01 10:51:31;;;;;;;6.85;4.40;;;17.70;64.30;;;;;;5067893;28;20574;-86
2022/05/01 10:54:15;;;;;;;4.10;3.42;;;17.90;63.20;;;;;;5085703;28;20024;-83
2022/05/01 10:56:43;;;;;;;5.93;4.00;;;18.10;61.80;;;;;;5085144;28;20133;-85
2022/05/01 10:59:30;;;;;;;7.68;4.25;;;18.50;60.80;;;;;;5086372;28;20599;-84
2022/05/01 11:02:04;;;;;;;5.38;3.25;;;19.10;59.70;;;;;;5088553;28;20059;-83
2022/05/01 11:04:38;;;;;;;5.25;3.88;;;19.40;57.90;;;;;;5070283;28;20039;-79
2022/05/01 11:07:05;;;;;;;6.13;4.18;;;19.60;58.50;;;;;;5086919;28;20024;-84
2022/05/01 11:09:35;;;;;;;6.68;5.55;;;19.80;58.20;;;;;;5062723;28;20028;-85
2022/05/01 11:12:01;;;;;;;8.93;5.13;;;19.60;61.20;;;;;;5048812;28;20025;-84
2022/05/01 11:14:38;;;;;;;7.03;5.63;;;18.90;61.10;;;;;;5047838;28;20056;-83
2022/05/01 11:17:04;;;;;;;9.80;5.80;;;18.50;64.00;;;;;;5047099;28;20059;-81
2022/05/01 11:19:42;;;;;;;9.50;5.55;;;18.00;64.50;;;;;;5064501;28;20063;-82
2022/05/01 11:22:08;;;;;;;9.15;5.97;;;17.80;66.30;;;;;;5063855;28;20370;-85
2022/05/01 11:24:45;;;;;;;7.50;6.03;;;17.70;66.70;;;;;;5050103;28;20021;-84
2022/05/01 11:27:10;;;;;;;7.65;5.28;;;17.40;67.80;;;;;;5050147;28;20035;-86
2022/05/01 11:29:37;;;;;;;9.23;5.75;;;17.60;69.00;;;;;;5049494;28;20025;-82
2022/05/01 11:32:19;;;;;;;10.25;5.78;;;17.80;67.50;;;;;;5048725;28;20510;-84
2022/05/01 11:34:53;;;;;;;8.70;5.55;;;18.00;66.10;;;;;;5068213;28;20108;-84
2022/05/01 11:37:21;;;;;;;8.45;6.32;;;18.30;66.30;;;;;;5069192;28;20053;-84
2022/05/01 11:39:47;;;;;;;7.63;5.28;;;18.70;62.30;;;;;;5050664;28;20029;-84
2022/05/01 11:42:25;;;;;;;8.57;5.35;;;18.60;62.60;;;;;;5067952;28;20055;-84
2022/05/01 11:44:58;;;;;;;9.48;5.68;;;18.70;62.90;;;;;;5068251;28;20425;-83
2022/05/01 11:47:30;;;;;;;8.73;5.60;;;18.60;62.50;;;;;;5051400;28;20040;-84
2022/05/01 11:49:56;;;;;;;8.13;5.60;;;18.50;62.00;;;;;;5069396;28;20029;-86
2022/05/01 11:52:24;;;;;;;9.20;5.95;;;18.60;62.80;;;;;;5051222;28;20437;-85
2022/05/01 11:54:53;;;;;;;7.32;5.53;;;18.80;62.40;;;;;;5068273;28;20025;-86
2022/05/01 12:02:57;;;;;;;;;;;19.80;59.00;;;;;;5072826;28;20027;-86
2022/05/01 12:05:23;;;;;;;6.28;4.72;;;20.10;59.20;;;;;;5070934;28;19912;-84
2022/05/01 12:07:56;;;;;;;5.57;4.97;;;20.20;57.30;;;;;;5070997;28;20021;-85
2022/05/01 12:10:26;;;;;;;7.38;5.47;;;20.60;57.70;;;;;;5082572;28;20005;-86
2022/05/01 12:12:51;;;;;;;7.38;5.63;;;20.80;56.40;;;;;;5074834;28;20028;-84
2022/05/01 12:15:17;;;;;;;7.53;5.53;;;20.40;57.60;;;;;;5074453;28;20100;-82
2022/05/01 12:17:43;;;;;;;9.43;5.55;;;20.20;57.90;;;;;;5077098;28;20020;-85
2022/05/01 12:20:10;;;;;;;7.90;5.40;;;19.60;57.80;;;;;;5073691;28;20027;-83
2022/05/01 12:22:39;;;;;;;7.80;5.95;;;19.10;59.70;;;;;;5072609;28;20025;-84
2022/05/01 12:25:07;;;;;;;9.98;5.80;;;18.60;61.10;;;;;;5090240;28;20048;-85
2022/05/01 12:27:34;;;;;;;8.68;5.75;;;18.10;63.20;;;;;;5073277;28;20055;-86
2022/05/01 12:30:04;;;;;;;7.35;5.80;;;17.90;63.10;;;;;;5076064;28;20025;-80
2022/05/01 12:32:31;;;;;;;8.70;5.43;;;17.60;63.40;;;;;;5082182;28;20028;-81
2022/05/01 12:35:00;;;;;;;8.40;5.43;;;17.90;64.70;;;;;;5087413;28;20113;-86
2022/05/01 12:37:37;;;;;;;5.78;4.38;;;18.50;64.10;;;;;;5068790;28;20028;-85
2022/05/01 12:43:50;;;;;;;6.70;5.18;;;19.10;60.90;;;;;;5087577;28;20024;-83
2022/05/01 12:45:40;;;;;;;7.32;6.10;;;18.80;61.20;;;;;;5086958;28;20430;-85
2022/05/01 12:48:08;;;;;;;7.80;5.53;;;18.30;62.20;;;;;;5071247;28;20031;-84
2022/05/01 12:50:35;;;;;;;6.95;5.68;;;18.00;64.20;;;;;;5069447;28;20433;-85
2022/05/01 12:53:19;;;;;;;7.97;5.88;;;17.70;64.40;;;;;;5068983;28;20040;-83
2022/05/01 12:55:46;;;;;;;7.22;5.38;;;17.40;65.10;;;;;;5068342;28;20039;-86
2022/05/01 12:58:11;;;;;;;11.40;6.13;;;17.10;65.70;;;;;;5068710;28;20111;-85
2022/05/01 13:00:41;;;;;;;9.25;5.85;;;16.80;67.30;;;;;;5087087;28;20028;-83
2022/05/01 13:03:20;;;;;;;7.05;5.90;;;16.60;67.70;;;;;;5086898;28;20392;-82
2022/05/01 13:06:09;;;;;;;6.88;6.15;;;16.60;68.40;;;;;;5085721;28;20047;-85
2022/05/01 13:08:41;;;;;;;8.30;5.65;;;16.60;68.20;;;;;;5086962;28;20036;-85
2022/05/01 13:11:27;;;;;;;7.15;5.60;;;16.70;68.50;;;;;;5050800;28;20033;-85
2022/05/01 13:13:55;;;;;;;7.90;6.45;;;16.80;68.50;;;;;;5063940;28;20053;-83
2022/05/01 13:16:39;;;;;;;7.95;5.68;;;16.70;67.60;;;;;;5046959;28;20033;-85